Time;durP1;ratioP1;P1;durP2;ratioP2;P2;SDS_P1;SDS_P2;PMS_P1;PMS_P2;Temp;Humidity;BMP_temperature;BMP_pressure;BME280_temperature;BME280_humidity;BME280_pressure;Samples;Min_cycle;Max_cycle;Signal;HPM_P1;HPM_P2
2022/09/22 00:01:07;;;;;;;0.60;0.60;;;9.10;99.90;;;;;;5004891;28;20022;-76
2022/09/22 00:03:35;;;;;;;0.90;0.75;;;8.80;99.90;;;;;;5005154;28;20167;-77
2022/09/22 00:06:09;;;;;;;1.30;0.63;;;9.10;99.90;;;;;;5005718;28;20268;-77
2022/09/22 00:08:40;;;;;;;2.83;1.38;;;9.00;99.90;;;;;;5005378;28;20447;-76
2022/09/22 00:11:27;;;;;;;0.50;0.50;;;9.00;99.90;;;;;;5011406;28;20052;-77
2022/09/22 00:14:29;;;;;;;0.70;0.63;;;9.00;99.90;;;;;;5008004;28;20321;-76
2022/09/22 00:16:57;;;;;;;0.30;0.30;;;8.90;99.90;;;;;;4983307;28;20059;-77
2022/09/22 00:19:35;;;;;;;2.50;1.17;;;8.90;99.90;;;;;;4967742;28;20093;-77
2022/09/22 00:22:01;;;;;;;0.57;0.57;;;8.90;99.90;;;;;;4982714;28;20695;-77
2022/09/22 00:24:28;;;;;;;0.22;0.22;;;8.80;99.90;;;;;;4984831;28;20057;-76
2022/09/22 00:26:56;;;;;;;0.45;0.45;;;8.80;99.90;;;;;;4985421;28;20513;-76
2022/09/22 00:29:23;;;;;;;1.75;0.90;;;8.80;99.90;;;;;;4982249;28;20569;-77
2022/09/22 00:31:49;;;;;;;0.50;0.38;;;8.80;99.90;;;;;;4982476;28;20321;-78
2022/09/22 00:34:18;;;;;;;1.08;0.80;;;8.80;99.90;;;;;;4952018;28;20030;-76
2022/09/22 00:36:44;;;;;;;2.58;2.35;;;8.80;99.90;;;;;;4982485;28;20034;-76
2022/09/22 00:39:11;;;;;;;0.30;0.30;;;8.80;99.90;;;;;;4968138;28;20038;-76
2022/09/22 00:41:40;;;;;;;0.10;0.10;;;8.80;99.90;;;;;;4986009;28;20033;-76
2022/09/22 00:44:25;;;;;;;0.77;0.77;;;8.80;99.90;;;;;;4983996;28;20030;-77
2022/09/22 00:47:15;;;;;;;0.20;0.20;;;8.80;99.90;;;;;;4984704;28;20041;-76
2022/09/22 00:49:55;;;;;;;1.02;1.02;;;8.90;99.90;;;;;;4991285;28;20320;-77
2022/09/22 00:52:32;;;;;;;0.20;0.20;;;8.90;99.90;;;;;;5006444;28;20509;-76
2022/09/22 00:55:01;;;;;;;0.50;0.50;;;8.90;99.90;;;;;;5007595;28;20270;-76
2022/09/22 00:57:35;;;;;;;1.65;1.52;;;8.90;99.90;;;;;;5007475;28;20018;-77
2022/09/22 01:00:04;;;;;;;0.95;0.95;;;8.90;99.90;;;;;;5005859;28;20053;-76
2022/09/22 01:02:30;;;;;;;2.45;1.60;;;9.00;99.90;;;;;;5005913;28;20030;-77
2022/09/22 01:04:56;;;;;;;1.42;0.60;;;9.00;99.90;;;;;;5007768;28;20045;-77
2022/09/22 01:07:26;;;;;;;0.85;0.77;;;9.00;99.90;;;;;;5005381;28;20444;-76
2022/09/22 01:09:54;;;;;;;6.60;5.88;;;9.00;99.90;;;;;;5007679;28;20045;-76
2022/09/22 01:12:21;;;;;;;9.13;6.97;;;9.00;99.90;;;;;;5010446;28;20096;-77
2022/09/22 01:15:12;;;;;;;13.90;12.55;;;9.00;99.90;;;;;;5008341;28;20030;-77
2022/09/22 01:18:04;;;;;;;12.35;7.00;;;9.00;99.90;;;;;;5007087;28;20130;-77
2022/09/22 01:20:36;;;;;;;9.45;6.15;;;9.00;99.90;;;;;;4986792;28;20136;-76
2022/09/22 01:23:25;;;;;;;1.05;0.98;;;9.00;99.90;;;;;;4988074;28;20030;-77
2022/09/22 01:25:56;;;;;;;4.75;3.53;;;9.00;99.90;;;;;;4988256;28;20220;-77
2022/09/22 01:28:31;;;;;;;2.10;1.45;;;9.00;99.90;;;;;;4988473;28;20148;-77
2022/09/22 01:31:18;;;;;;;1.85;1.52;;;9.00;99.90;;;;;;4992425;28;20133;-77
2022/09/22 01:34:23;;;;;;;2.00;1.10;;;9.00;99.90;;;;;;4978149;28;20057;-77
2022/09/22 01:37:00;;;;;;;2.17;1.75;;;9.00;99.90;;;;;;4968756;28;20074;-77
2022/09/22 01:39:37;;;;;;;1.20;1.10;;;9.10;99.90;;;;;;4988568;28;20292;-77
2022/09/22 01:42:11;;;;;;;0.40;0.40;;;9.00;99.90;;;;;;4981624;28;20026;-77
2022/09/22 01:45:04;;;;;;;0.30;0.30;;;9.00;99.90;;;;;;4964565;28;20039;-77
2022/09/22 01:47:34;;;;;;;1.85;1.75;;;9.00;99.90;;;;;;4981524;28;20291;-77
2022/09/22 01:50:06;;;;;;;0.93;0.88;;;9.00;99.90;;;;;;4981958;28;20034;-77
2022/09/22 01:52:34;;;;;;;0.13;0.13;;;9.00;99.90;;;;;;4966108;28;20186;-77
2022/09/22 01:55:12;;;;;;;1.30;0.63;;;9.00;99.90;;;;;;4983101;28;20018;-77
2022/09/22 01:57:49;;;;;;;0.00;0.00;;;9.00;99.90;;;;;;4996447;28;20026;-77
2022/09/22 02:00:15;;;;;;;1.88;1.75;;;9.00;99.90;;;;;;5005064;28;20476;-77
2022/09/22 02:02:49;;;;;;;0.60;0.60;;;9.00;99.90;;;;;;5002644;28;20026;-77
2022/09/22 02:05:27;;;;;;;0.10;0.10;;;9.00;99.90;;;;;;5005330;28;20109;-77
2022/09/22 02:07:54;;;;;;;0.40;0.40;;;9.00;99.90;;;;;;5004665;28;20044;-77
2022/09/22 02:10:26;;;;;;;1.45;1.30;;;9.00;99.90;;;;;;5004722;28;20060;-77
2022/09/22 02:12:53;;;;;;;0.68;0.68;;;9.00;99.90;;;;;;5004375;28;20045;-77
2022/09/22 02:18:14;;;;;;;0.65;0.57;;;9.00;99.90;;;;;;5008259;28;20033;-76
2022/09/22 02:20:40;;;;;;;0.98;0.98;;;8.90;99.90;;;;;;5007170;28;20117;-77
2022/09/22 02:23:06;;;;;;;0.13;0.13;;;8.90;99.90;;;;;;5010253;28;20022;-76
2022/09/22 02:25:33;;;;;;;0.10;0.10;;;8.90;99.90;;;;;;5004388;28;20026;-76
2022/09/22 02:28:00;;;;;;;0.90;0.77;;;8.80;99.90;;;;;;5006118;28;20018;-77
2022/09/22 02:30:26;;;;;;;0.20;0.20;;;8.80;99.90;;;;;;5006434;28;20325;-77
2022/09/22 02:32:55;;;;;;;0.22;0.22;;;8.80;99.90;;;;;;5009517;28;20466;-77
2022/09/22 02:35:24;;;;;;;2.05;1.08;;;8.80;99.90;;;;;;5010548;28;20029;-77
2022/09/22 02:38:01;;;;;;;0.20;0.20;;;8.80;99.90;;;;;;4992031;28;20452;-77
2022/09/22 02:40:35;;;;;;;0.50;0.50;;;8.80;99.90;;;;;;5010985;28;20329;-77
2022/09/22 02:43:14;;;;;;;0.10;0.10;;;8.80;99.90;;;;;;5010751;28;20274;-77
2022/09/22 02:45:46;;;;;;;0.47;0.47;;;8.80;99.90;;;;;;5009444;28;20022;-77
2022/09/22 02:48:16;;;;;;;0.43;0.43;;;8.80;99.90;;;;;;5016286;28;20022;-77
2022/09/22 02:50:43;;;;;;;1.58;1.48;;;8.90;99.90;;;;;;5021334;28;20097;-78
2022/09/22 02:53:13;;;;;;;1.17;1.10;;;8.80;99.90;;;;;;5020072;28;20053;-77
2022/09/22 02:55:49;;;;;;;0.40;0.40;;;8.80;99.90;;;;;;5017814;28;20072;-78
2022/09/22 02:58:17;;;;;;;4.68;0.68;;;9.20;99.90;;;;;;5012569;28;20033;-77
2022/09/22 03:00:44;;;;;;;2.72;1.92;;;8.90;99.90;;;;;;5005511;28;20246;-77
2022/09/22 03:03:11;;;;;;;0.25;0.25;;;8.80;99.90;;;;;;5008783;28;20040;-77
2022/09/22 03:05:57;;;;;;;0.60;0.60;;;8.80;99.90;;;;;;5009161;28;20034;-77
2022/09/22 03:08:23;;;;;;;0.55;0.55;;;6.00;99.90;;;;;;5005902;28;20541;-77
2022/09/22 03:10:48;;;;;;;2.08;1.95;;;8.90;99.90;;;;;;5006714;28;20231;-78
2022/09/22 03:13:15;;;;;;;0.08;0.08;;;8.90;99.90;;;;;;5008277;28;20454;-78
2022/09/22 03:15:41;;;;;;;0.60;0.50;;;8.90;99.90;;;;;;5004565;28;20105;-77
2022/09/22 03:18:07;;;;;;;2.25;1.75;;;9.00;99.90;;;;;;5008072;28;20257;-77
2022/09/22 03:20:32;;;;;;;0.85;0.68;;;9.00;99.90;;;;;;5007242;28;20390;-77
2022/09/22 03:22:58;;;;;;;1.90;0.68;;;9.00;99.90;;;;;;5006640;28;20083;-77
2022/09/22 03:25:24;;;;;;;0.70;0.70;;;9.00;99.90;;;;;;5007983;28;20030;-77
2022/09/22 03:27:50;;;;;;;1.02;0.98;;;9.00;99.90;;;;;;5007520;28;20076;-77
2022/09/22 03:30:15;;;;;;;0.63;0.63;;;9.00;99.90;;;;;;5007280;28;20115;-77
2022/09/22 03:32:42;;;;;;;0.35;0.35;;;8.90;99.90;;;;;;5008643;28;20065;-77
2022/09/22 03:35:08;;;;;;;0.63;0.63;;;8.90;99.90;;;;;;5007354;28;20460;-77
2022/09/22 03:37:35;;;;;;;3.65;0.95;;;8.90;99.90;;;;;;5010050;28;20026;-77
2022/09/22 03:40:01;;;;;;;0.15;0.15;;;8.90;99.90;;;;;;5007513;28;20089;-77
2022/09/22 03:42:28;;;;;;;1.10;1.00;;;8.90;99.90;;;;;;5006613;28;20113;-77
2022/09/22 03:44:54;;;;;;;1.98;1.88;;;8.90;99.90;;;;;;5010869;28;20049;-76
2022/09/22 03:47:20;;;;;;;0.25;0.25;;;8.90;99.90;;;;;;5008721;28;20054;-77
2022/09/22 03:49:45;;;;;;;0.75;0.75;;;8.80;99.90;;;;;;5007704;28;20558;-77
2022/09/22 03:52:12;;;;;;;1.38;1.27;;;8.90;99.90;;;;;;5007789;28;20034;-77
2022/09/22 03:54:38;;;;;;;0.35;0.35;;;8.90;99.90;;;;;;5007915;28;20030;-76
2022/09/22 03:57:07;;;;;;;0.52;0.52;;;8.90;99.90;;;;;;5009018;28;20430;-77
2022/09/22 03:59:33;;;;;;;0.70;0.65;;;8.90;99.90;;;;;;5005993;28;20054;-76
2022/09/22 04:02:00;;;;;;;1.10;1.00;;;8.90;99.90;;;;;;5005869;28;20076;-77
2022/09/22 04:04:26;;;;;;;0.30;0.30;;;8.90;99.90;;;;;;5006808;28;20255;-77
2022/09/22 04:06:52;;;;;;;4.28;0.88;;;8.90;99.90;;;;;;5007842;28;20022;-77
2022/09/22 04:09:18;;;;;;;1.88;1.70;;;8.90;99.90;;;;;;5007777;28;20461;-77
2022/09/22 04:11:44;;;;;;;0.30;0.30;;;8.90;99.90;;;;;;5008855;28;20401;-76
2022/09/22 04:14:09;;;;;;;0.10;0.10;;;9.30;99.90;;;;;;5008521;28;20032;-77
2022/09/22 04:16:35;;;;;;;1.10;1.00;;;10.30;99.90;;;;;;5009992;28;20064;-77
2022/09/22 04:19:03;;;;;;;2.05;1.77;;;8.90;99.90;;;;;;5008190;28;20022;-77
2022/09/22 04:21:31;;;;;;;3.58;3.30;;;8.90;99.90;;;;;;5008951;28;20018;-77
2022/09/22 04:23:56;;;;;;;3.88;2.78;;;8.90;99.90;;;;;;5007110;28;20021;-76
2022/09/22 04:26:22;;;;;;;0.65;0.65;;;8.90;99.90;;;;;;5011091;28;20101;-77
2022/09/22 04:28:48;;;;;;;1.88;1.20;;;8.90;99.90;;;;;;5007601;28;20473;-77
2022/09/22 04:31:14;;;;;;;2.08;1.40;;;8.90;99.90;;;;;;5006871;28;20088;-77
2022/09/22 04:33:40;;;;;;;0.47;0.47;;;8.90;99.90;;;;;;5010310;28;20021;-77
2022/09/22 04:36:06;;;;;;;0.30;0.30;;;9.00;99.90;;;;;;5008096;28;20131;-77
2022/09/22 04:38:32;;;;;;;0.68;0.68;;;8.90;99.90;;;;;;5007629;28;20414;-77
2022/09/22 04:40:58;;;;;;;0.60;0.60;;;9.00;99.90;;;;;;5007100;28;20328;-77
2022/09/22 04:43:23;;;;;;;0.75;0.73;;;9.00;99.90;;;;;;5007562;28;20080;-77
2022/09/22 04:45:49;;;;;;;1.13;1.10;;;8.90;99.90;;;;;;5010695;28;20559;-77
2022/09/22 04:48:16;;;;;;;3.55;1.55;;;7.40;99.90;;;;;;5009738;28;20037;-77
2022/09/22 04:50:41;;;;;;;0.93;0.77;;;9.00;99.90;;;;;;5008830;28;20401;-77
2022/09/22 04:53:08;;;;;;;3.60;2.05;;;8.90;99.90;;;;;;5012569;28;20504;-77
2022/09/22 04:55:35;;;;;;;0.95;0.88;;;9.00;99.90;;;;;;5017756;28;20018;-78
2022/09/22 04:58:01;;;;;;;2.20;2.00;;;8.90;99.90;;;;;;5019690;28;20050;-77
2022/09/22 05:00:28;;;;;;;0.30;0.30;;;8.90;99.90;;;;;;5017280;28;20037;-77
2022/09/22 05:02:54;;;;;;;0.93;0.88;;;8.90;99.90;;;;;;5014036;28;20036;-77
2022/09/22 05:05:22;;;;;;;0.82;0.82;;;8.90;99.90;;;;;;5012124;28;20042;-77
2022/09/22 05:07:52;;;;;;;1.98;1.30;;;8.90;99.90;;;;;;5008543;28;20420;-77
2022/09/22 05:10:19;;;;;;;0.80;0.80;;;8.80;99.90;;;;;;5005227;28;20072;-76
2022/09/22 05:12:45;;;;;;;0.75;0.63;;;8.80;99.90;;;;;;5007462;28;20029;-77
2022/09/22 05:15:13;;;;;;;1.83;1.42;;;8.80;99.90;;;;;;5007630;28;20025;-76
2022/09/22 05:17:46;;;;;;;0.20;0.20;;;8.90;99.90;;;;;;5013312;28;20054;-77
2022/09/22 05:20:12;;;;;;;1.15;1.05;;;8.80;99.90;;;;;;5019776;28;20042;-78
2022/09/22 05:22:39;;;;;;;0.47;0.47;;;8.80;99.90;;;;;;5019623;28;20049;-78
2022/09/22 05:25:11;;;;;;;3.08;1.58;;;8.80;99.90;;;;;;5020573;28;20098;-77
2022/09/22 05:27:52;;;;;;;5.03;1.58;;;8.90;99.90;;;;;;5019297;28;20219;-77
2022/09/22 05:30:20;;;;;;;0.17;0.17;;;8.80;99.90;;;;;;5017416;28;20026;-77
2022/09/22 05:32:47;;;;;;;1.42;1.33;;;8.80;99.90;;;;;;5007516;28;20037;-77
2022/09/22 05:35:17;;;;;;;2.28;1.42;;;8.80;99.90;;;;;;5010095;28;20491;-77
2022/09/22 05:37:44;;;;;;;0.43;0.43;;;8.90;99.90;;;;;;5009659;28;20045;-77
2022/09/22 05:40:11;;;;;;;1.35;1.25;;;8.90;99.90;;;;;;5006425;28;20072;-76
2022/09/22 05:42:43;;;;;;;1.52;1.42;;;8.90;99.90;;;;;;5007962;28;20018;-77
2022/09/22 05:45:10;;;;;;;0.40;0.40;;;8.90;99.90;;;;;;5004032;28;20026;-77
2022/09/22 05:47:36;;;;;;;1.33;1.23;;;9.00;99.90;;;;;;5007324;28;20034;-77
2022/09/22 05:50:02;;;;;;;0.47;0.47;;;9.00;99.90;;;;;;5006001;28;20148;-77
2022/09/22 05:52:28;;;;;;;0.95;0.95;;;9.00;99.90;;;;;;5007412;28;20034;-79
2022/09/22 05:54:53;;;;;;;0.63;0.63;;;9.00;99.90;;;;;;5003920;28;20025;-77
2022/09/22 05:57:24;;;;;;;1.15;0.95;;;8.90;99.90;;;;;;5006742;28;20041;-77
2022/09/22 05:59:50;;;;;;;2.90;1.10;;;9.00;99.90;;;;;;5008423;28;20358;-77
2022/09/22 06:02:16;;;;;;;0.95;0.93;;;8.90;99.90;;;;;;5006253;28;20033;-77
2022/09/22 06:04:44;;;;;;;1.17;1.00;;;8.90;99.90;;;;;;5009812;28;20029;-77
2022/09/22 06:07:13;;;;;;;1.13;1.02;;;8.90;99.90;;;;;;5006757;28;20018;-77
2022/09/22 06:09:38;;;;;;;0.75;0.70;;;8.90;99.90;;;;;;5008094;28;20038;-77
2022/09/22 06:12:07;;;;;;;0.75;0.75;;;8.80;99.90;;;;;;5008598;28;20033;-77
2022/09/22 06:14:35;;;;;;;1.08;0.85;;;;;;;;;;5009875;28;20030;-77
2022/09/22 06:17:02;;;;;;;1.92;1.52;;;8.90;99.90;;;;;;5008868;28;20202;-77
2022/09/22 06:19:28;;;;;;;1.48;1.40;;;9.00;99.90;;;;;;5007175;28;20072;-77
2022/09/22 06:21:54;;;;;;;2.97;2.63;;;9.00;99.90;;;;;;5005869;28;20093;-77
2022/09/22 06:24:22;;;;;;;1.08;0.88;;;9.00;99.90;;;;;;5012073;28;20273;-77
2022/09/22 06:26:49;;;;;;;1.15;1.05;;;9.00;99.90;;;;;;5007141;28;20034;-77
2022/09/22 06:29:15;;;;;;;5.13;2.03;;;9.10;99.90;;;;;;5009299;28;20053;-77
2022/09/22 06:31:40;;;;;;;1.13;0.98;;;9.10;99.90;;;;;;5008597;28;20432;-77
2022/09/22 06:34:07;;;;;;;0.38;0.38;;;9.20;99.90;;;;;;5006933;28;20030;-77
2022/09/22 06:36:33;;;;;;;1.45;1.38;;;9.20;99.90;;;;;;5009373;28;20346;-78
2022/09/22 06:39:04;;;;;;;1.48;1.17;;;9.20;99.90;;;;;;5009287;28;20038;-77
2022/09/22 06:41:33;;;;;;;0.88;0.88;;;9.20;99.90;;;;;;5006608;28;20033;-77
2022/09/22 06:43:59;;;;;;;2.60;2.40;;;9.20;99.90;;;;;;5003966;28;20301;-77
2022/09/22 06:46:36;;;;;;;2.13;1.80;;;9.30;99.90;;;;;;5004946;28;20033;-77
2022/09/22 06:49:02;;;;;;;1.65;1.27;;;9.30;99.90;;;;;;5007412;28;20109;-77
2022/09/22 06:51:37;;;;;;;0.90;0.90;;;9.40;99.90;;;;;;5005998;28;20539;-77
2022/09/22 06:54:04;;;;;;;1.05;1.00;;;8.20;99.90;;;;;;5006687;28;20053;-77
2022/09/22 06:56:41;;;;;;;3.13;2.40;;;9.50;99.90;;;;;;5005268;28;20037;-77
2022/09/22 06:59:15;;;;;;;1.75;1.63;;;9.50;99.90;;;;;;5008547;28;20706;-77
2022/09/22 07:01:57;;;;;;;2.00;1.08;;;9.50;99.90;;;;;;5009272;28;20033;-77
2022/09/22 07:04:22;;;;;;;1.90;1.75;;;9.60;99.90;;;;;;5009228;28;20022;-77
2022/09/22 07:06:49;;;;;;;2.63;1.38;;;9.70;99.90;;;;;;5011401;28;20037;-76
2022/09/22 07:09:20;;;;;;;0.65;0.65;;;9.80;99.90;;;;;;5010878;28;20018;-77
2022/09/22 07:11:50;;;;;;;1.75;1.65;;;9.90;99.90;;;;;;5017935;28;20725;-77
2022/09/22 07:14:18;;;;;;;2.47;2.25;;;8.00;99.90;;;;;;5014284;28;20034;-77
2022/09/22 07:16:47;;;;;;;1.85;1.67;;;10.00;99.90;;;;;;5005279;28;20022;-77
2022/09/22 07:19:14;;;;;;;3.65;2.92;;;10.00;99.90;;;;;;5007224;28;20010;-77
2022/09/22 07:21:39;;;;;;;1.10;1.10;;;9.80;99.90;;;;;;5006839;28;20018;-77
2022/09/22 07:24:09;;;;;;;0.70;0.70;;;10.10;99.90;;;;;;5006542;28;20133;-77
2022/09/22 07:26:42;;;;;;;1.23;1.13;;;10.10;99.90;;;;;;5008437;28;20095;-77
2022/09/22 07:29:15;;;;;;;2.15;1.33;;;10.10;99.90;;;;;;5005859;28;20026;-77
2022/09/22 07:31:42;;;;;;;1.17;0.82;;;10.30;99.90;;;;;;5008042;28;20030;-77
2022/09/22 07:34:08;;;;;;;0.40;0.40;;;10.50;99.90;;;;;;5011964;28;20034;-76
2022/09/22 07:36:35;;;;;;;0.28;0.28;;;10.70;99.90;;;;;;5005506;28;20035;-79
2022/09/22 07:39:09;;;;;;;0.28;0.28;;;10.90;99.90;;;;;;5010499;28;20021;-77
2022/09/22 07:41:40;;;;;;;2.00;1.88;;;11.00;99.90;;;;;;5013543;28;20318;-76
2022/09/22 07:46:51;;;;;;;1.33;1.23;;;11.30;99.90;;;;;;5004118;28;20049;-77
2022/09/22 07:49:19;;;;;;;1.75;1.65;;;11.30;99.90;;;;;;5003558;28;20022;-77
2022/09/22 07:51:45;;;;;;;2.85;1.05;;;11.30;99.90;;;;;;5004516;28;20246;-77
2022/09/22 07:54:14;;;;;;;0.70;0.70;;;11.40;99.90;;;;;;5006543;28;20331;-77
2022/09/22 07:56:43;;;;;;;0.82;0.82;;;11.70;99.90;;;;;;5008837;28;20026;-77
2022/09/22 07:59:11;;;;;;;0.35;0.35;;;11.70;99.90;;;;;;5004690;28;20081;-76
2022/09/22 08:01:42;;;;;;;1.42;1.35;;;11.80;99.90;;;;;;5002477;28;20262;-77
2022/09/22 08:04:11;;;;;;;2.38;2.10;;;11.80;99.90;;;;;;5002639;28;20026;-77
2022/09/22 08:06:37;;;;;;;1.25;0.93;;;11.50;99.90;;;;;;5002949;28;20018;-77
2022/09/22 08:09:05;;;;;;;2.78;2.55;;;11.40;99.90;;;;;;5002942;28;20250;-77
2022/09/22 08:11:31;;;;;;;1.65;1.55;;;11.30;99.90;;;;;;5005827;28;20049;-77
2022/09/22 08:14:00;;;;;;;0.85;0.82;;;11.10;99.90;;;;;;5004726;28;20034;-77
2022/09/22 08:16:28;;;;;;;1.45;1.35;;;11.10;99.90;;;;;;5009143;28;20037;-77
2022/09/22 08:18:55;;;;;;;1.75;1.65;;;11.10;99.90;;;;;;5009128;28;20030;-77
2022/09/22 08:21:26;;;;;;;2.17;1.55;;;10.90;99.90;;;;;;5008564;28;20033;-77
2022/09/22 08:23:54;;;;;;;1.55;1.45;;;10.80;99.90;;;;;;5009125;28;20240;-77
2022/09/22 08:26:21;;;;;;;2.20;1.60;;;10.80;99.90;;;;;;5002308;28;20339;-77
2022/09/22 08:28:52;;;;;;;1.85;1.55;;;10.90;99.90;;;;;;4984445;28;20030;-77
2022/09/22 08:31:21;;;;;;;1.38;1.27;;;10.90;99.90;;;;;;5000837;28;20156;-77
2022/09/22 08:33:49;;;;;;;0.80;0.80;;;11.00;99.90;;;;;;5000668;28;20361;-76
2022/09/22 08:36:15;;;;;;;2.03;1.88;;;11.00;99.90;;;;;;5000777;28;20055;-77
2022/09/22 08:38:41;;;;;;;1.05;1.02;;;11.00;99.90;;;;;;5001504;28;20053;-77
2022/09/22 08:41:37;;;;;;;0.65;0.65;;;11.10;99.90;;;;;;5001714;28;20229;-76
2022/09/22 08:44:11;;;;;;;1.48;0.90;;;11.80;99.90;;;;;;5000349;28;20034;-77
2022/09/22 08:46:42;;;;;;;1.45;0.88;;;11.00;99.90;;;;;;5001757;28;20027;-76
2022/09/22 08:52:33;;;;;;;0.50;0.50;;;11.10;99.90;;;;;;4978246;28;20132;-77
2022/09/22 08:55:01;;;;;;;0.20;0.20;;;11.10;99.90;;;;;;4978374;28;20023;-77
2022/09/22 08:57:50;;;;;;;1.15;1.15;;;11.30;99.90;;;;;;4977663;28;20053;-78
2022/09/22 09:00:18;;;;;;;1.08;0.77;;;11.30;99.90;;;;;;4978895;28;20033;-77
2022/09/22 09:03:22;;;;;;;7.80;3.80;;;11.40;99.90;;;;;;4961412;28;20225;-77
2022/09/22 09:06:03;;;;;;;1.55;1.48;;;11.50;99.90;;;;;;4978222;28;20034;-76
2022/09/22 09:08:33;;;;;;;1.90;1.27;;;11.70;99.90;;;;;;4978107;28;20022;-77
2022/09/22 09:11:16;;;;;;;0.13;0.13;;;12.00;99.90;;;;;;4976858;28;20065;-77
2022/09/22 09:14:02;;;;;;;2.42;1.35;;;12.30;99.90;;;;;;4975729;28;20030;-77
2022/09/22 09:16:52;;;;;;;1.10;1.00;;;12.50;99.90;;;;;;4959818;28;20294;-76
2022/09/22 09:19:51;;;;;;;6.20;2.55;;;12.80;99.90;;;;;;4974927;28;20281;-77
2022/09/22 09:22:28;;;;;;;1.90;1.00;;;12.90;99.90;;;;;;4917438;28;20063;-78
2022/09/22 09:25:14;;;;;;;1.50;1.08;;;13.10;99.90;;;;;;4918158;29;20027;-81
2022/09/22 09:27:45;;;;;;;1.05;1.02;;;13.10;99.90;;;;;;4917942;29;20034;-77
2022/09/22 09:30:18;;;;;;;0.60;0.60;;;13.20;99.90;;;;;;4917449;29;20127;-76
2022/09/22 09:33:10;;;;;;;1.45;1.05;;;13.00;99.90;;;;;;4917766;29;20100;-77
2022/09/22 09:35:44;;;;;;;0.65;0.65;;;12.90;99.90;;;;;;4918053;29;20071;-77
2022/09/22 09:38:13;;;;;;;;;;;12.90;99.90;;;;;;4918034;29;20035;-77
2022/09/22 09:40:39;;;;;;;2.50;1.85;;;13.00;99.90;;;;;;4900913;29;19989;-79
2022/09/22 09:43:06;;;;;;;1.42;1.33;;;13.00;99.90;;;;;;4917356;29;20039;-77
2022/09/22 09:45:42;;;;;;;3.92;3.47;;;13.10;99.90;;;;;;4917008;29;20051;-77
2022/09/22 09:48:50;;;;;;;0.68;0.50;;;13.30;99.90;;;;;;4916674;29;20031;-78
2022/09/22 09:51:15;;;;;;;2.28;2.08;;;13.50;99.90;;;;;;4916810;29;20043;-77
2022/09/22 09:53:44;;;;;;;0.55;0.55;;;13.60;99.90;;;;;;4917527;29;20522;-77
2022/09/22 09:56:29;;;;;;;2.10;0.68;;;13.60;99.90;;;;;;4917919;29;20043;-77
2022/09/22 10:01:45;;;;;;;0.47;0.47;;;13.60;99.90;;;;;;4999121;28;20095;-78
2022/09/22 10:04:24;;;;;;;0.52;0.52;;;10.70;99.90;;;;;;4999438;28;20018;-80
2022/09/22 10:06:50;;;;;;;4.38;1.15;;;13.90;99.90;;;;;;4997261;28;20356;-76
2022/09/22 10:09:28;;;;;;;1.10;1.00;;;14.40;99.90;;;;;;4997389;28;20307;-76
2022/09/22 10:12:02;;;;;;;1.85;1.55;;;14.50;99.90;;;;;;4996201;28;20056;-75
2022/09/22 10:14:32;;;;;;;0.88;0.88;;;14.50;99.90;;;;;;4996749;28;20167;-77
2022/09/22 10:16:58;;;;;;;2.67;0.88;;;14.50;99.90;;;;;;4997446;28;20314;-75
2022/09/22 10:19:24;;;;;;;0.73;0.73;;;14.20;99.90;;;;;;4997166;28;20049;-76
2022/09/22 10:21:50;;;;;;;1.17;0.73;;;14.00;99.90;;;;;;4996257;28;20088;-80
2022/09/22 10:24:29;;;;;;;2.55;2.40;;;14.00;99.90;;;;;;4995852;28;20599;-76
2022/09/22 10:26:56;;;;;;;0.50;0.50;;;13.90;99.90;;;;;;4997871;28;20033;-75
2022/09/22 10:29:22;;;;;;;2.33;1.02;;;14.00;99.90;;;;;;4997967;28;20014;-78
2022/09/22 10:32:01;;;;;;;5.78;2.97;;;14.00;99.90;;;;;;4998233;28;20034;-84
2022/09/22 10:34:40;;;;;;;2.20;2.00;;;14.00;99.90;;;;;;4998150;28;20477;-78
2022/09/22 10:37:09;;;;;;;0.40;0.40;;;14.10;99.90;;;;;;4998810;28;20087;-77
2022/09/22 10:40:00;;;;;;;0.30;0.30;;;14.00;99.90;;;;;;4998078;28;20385;-78
2022/09/22 10:42:39;;;;;;;1.00;1.00;;;14.00;99.90;;;;;;4997940;28;20030;-78
2022/09/22 10:45:12;;;;;;;1.70;1.63;;;12.80;99.90;;;;;;4997449;28;20341;-76
2022/09/22 10:47:55;;;;;;;0.80;0.77;;;14.00;99.90;;;;;;4997560;28;20057;-75
2022/09/22 10:50:40;;;;;;;0.85;0.82;;;14.30;99.90;;;;;;4997738;28;20042;-76
2022/09/22 10:53:33;;;;;;;0.20;0.20;;;14.20;99.90;;;;;;4999201;28;20026;-76
2022/09/22 10:56:38;;;;;;;2.22;1.55;;;14.40;99.90;;;;;;5001488;28;20443;-75
2022/09/22 10:59:15;;;;;;;0.20;0.20;;;14.40;99.90;;;;;;4999638;28;20279;-75
2022/09/22 11:02:12;;;;;;;0.88;0.85;;;14.60;99.90;;;;;;5001154;28;20026;-75
2022/09/22 11:05:10;;;;;;;1.63;0.63;;;14.70;99.90;;;;;;5000952;28;20030;-76
2022/09/22 11:13:43;;;;;;;0.32;0.32;;;15.10;98.90;;;;;;5000830;28;20045;-75
2022/09/22 11:16:12;;;;;;;0.22;0.22;;;14.90;99.30;;;;;;5000863;28;20022;-75
2022/09/22 11:18:58;;;;;;;0.10;0.10;;;15.10;99.00;;;;;;5000612;28;20049;-75
2022/09/22 11:21:30;;;;;;;0.25;0.25;;;15.40;99.20;;;;;;5001573;28;20298;-75
2022/09/22 11:24:01;;;;;;;0.40;0.40;;;15.50;98.50;;;;;;5001286;28;20029;-78
2022/09/22 11:26:35;;;;;;;0.55;0.55;;;15.60;98.10;;;;;;5001959;28;20018;-75
2022/09/22 11:29:25;;;;;;;0.52;0.45;;;15.40;97.50;;;;;;5001556;28;20315;-76
2022/09/22 11:32:13;;;;;;;0.10;0.10;;;15.20;97.40;;;;;;5000078;28;20030;-76
2022/09/22 11:35:00;;;;;;;0.10;0.10;;;16.10;96.90;;;;;;5001308;28;20018;-77
2022/09/22 11:37:56;;;;;;;0.57;0.57;;;16.30;96.50;;;;;;5002641;28;20041;-78
2022/09/22 11:40:28;;;;;;;0.10;0.10;;;16.50;96.50;;;;;;5000718;28;20021;-77
2022/09/22 11:43:32;;;;;;;0.20;0.20;;;16.90;95.70;;;;;;5001525;28;20048;-77
2022/09/22 11:46:21;;;;;;;3.20;0.55;;;17.10;95.10;;;;;;5001518;28;20034;-78
2022/09/22 11:48:49;;;;;;;0.55;0.55;;;17.60;94.50;;;;;;5000461;28;20030;-78
2022/09/22 11:51:33;;;;;;;0.47;0.28;;;18.00;92.90;;;;;;5001631;28;20455;-78
2022/09/22 11:54:01;;;;;;;0.20;0.20;;;18.60;92.30;;;;;;5003434;28;20018;-80
2022/09/22 11:56:46;;;;;;;0.17;0.17;;;18.90;90.50;;;;;;5002561;28;20488;-78
2022/09/22 11:59:48;;;;;;;0.10;0.10;;;19.20;89.10;;;;;;5003743;28;20033;-76
2022/09/22 12:02:45;;;;;;;0.10;0.10;;;20.30;89.50;;;;;;4998796;28;20382;-76
2022/09/22 12:05:25;;;;;;;0.40;0.40;;;18.90;88.30;;;;;;5000115;28;20026;-77
2022/09/22 12:08:03;;;;;;;0.10;0.10;;;17.70;90.10;;;;;;5000646;28;20033;-82
2022/09/22 12:10:40;;;;;;;0.10;0.10;;;18.20;88.80;;;;;;4999937;28;20289;-77
2022/09/22 12:13:26;;;;;;;1.45;1.35;;;17.20;89.80;;;;;;5001120;28;20022;-75
2022/09/22 12:16:40;;;;;;;4.18;1.10;;;17.40;90.40;;;;;;5000153;28;20508;-75
2022/09/22 12:19:18;;;;;;;0.43;0.40;;;17.30;91.20;;;;;;4999921;28;20496;-81
2022/09/22 12:21:56;;;;;;;0.17;0.13;;;17.10;92.10;;;;;;5000240;28;20034;-79
2022/09/22 12:24:23;;;;;;;0.45;0.40;;;19.30;93.30;;;;;;5000057;28;20030;-78
2022/09/22 12:26:50;;;;;;;0.20;0.20;;;17.00;92.70;;;;;;4999861;28;20373;-87
2022/09/22 12:29:15;;;;;;;1.30;1.20;;;17.10;93.50;;;;;;4999732;28;20056;-80
2022/09/22 12:31:44;;;;;;;0.17;0.17;;;17.40;93.30;;;;;;4999297;28;20061;-81
2022/09/22 12:34:20;;;;;;;0.30;0.20;;;18.00;92.90;;;;;;4999434;28;20293;-79
2022/09/22 12:36:50;;;;;;;0.17;0.17;;;18.30;91.00;;;;;;4999611;28;20546;-84
2022/09/22 12:39:23;;;;;;;0.10;0.10;;;18.40;89.10;;;;;;4999563;28;20080;-79
2022/09/22 12:41:56;;;;;;;1.45;0.57;;;18.50;87.30;;;;;;4999492;28;20528;-79
2022/09/22 12:44:43;;;;;;;0.55;0.40;;;18.50;86.70;;;;;;4999096;28;20030;-80
2022/09/22 12:47:26;;;;;;;0.13;0.13;;;18.40;87.00;;;;;;4999711;28;20018;-78
2022/09/22 12:50:01;;;;;;;0.47;0.47;;;18.50;88.00;;;;;;4998802;28;20014;-78
2022/09/22 12:53:03;;;;;;;0.17;0.17;;;18.20;85.90;;;;;;4999096;28;20068;-77
2022/09/22 12:55:38;;;;;;;0.20;0.20;;;18.20;85.80;;;;;;4998817;28;20397;-75
2022/09/22 12:58:29;;;;;;;0.10;0.10;;;18.20;87.40;;;;;;4998688;28;20121;-82
2022/09/22 13:01:15;;;;;;;0.75;0.75;;;18.20;86.80;;;;;;4998797;28;20022;-78
2022/09/22 13:03:51;;;;;;;0.93;0.90;;;18.40;86.10;;;;;;4998869;28;20026;-76
2022/09/22 13:06:22;;;;;;;0.45;0.35;;;18.30;85.30;;;;;;4998609;28;20018;-79
2022/09/22 13:08:51;;;;;;;0.10;0.10;;;18.20;85.10;;;;;;4998414;28;20519;-76
2022/09/22 13:11:17;;;;;;;0.45;0.38;;;17.90;85.80;;;;;;4998557;28;20052;-75
2022/09/22 13:13:44;;;;;;;0.85;0.60;;;17.60;87.10;;;;;;4998584;28;20026;-75
2022/09/22 13:16:18;;;;;;;0.10;0.10;;;17.30;88.30;;;;;;4997876;28;20056;-77
2022/09/22 13:19:07;;;;;;;0.13;0.13;;;16.90;87.80;;;;;;4998524;28;20097;-75
2022/09/22 13:21:33;;;;;;;0.30;0.30;;;16.70;89.40;;;;;;4998739;28;20295;-76
2022/09/22 13:24:01;;;;;;;1.17;0.73;;;16.50;90.30;;;;;;4998512;28;20475;-76
2022/09/22 13:26:40;;;;;;;0.43;0.28;;;16.30;90.40;;;;;;4998453;28;20021;-76
2022/09/22 13:29:15;;;;;;;0.28;0.28;;;16.30;90.70;;;;;;4998497;28;20025;-79
2022/09/22 13:31:53;;;;;;;2.30;2.15;;;16.30;91.20;;;;;;5001414;28;20741;-78
2022/09/22 13:34:34;;;;;;;1.10;0.52;;;16.50;91.80;;;;;;5004143;28;20255;-76
2022/09/22 13:37:13;;;;;;;0.75;0.47;;;16.90;90.70;;;;;;5007345;28;20022;-75
2022/09/22 13:39:45;;;;;;;0.13;0.13;;;17.50;89.90;;;;;;5003615;28;20195;-75